Time,TemperatureF,DewpointF,PressureIn,WindDirection,WindDirectionDegrees,WindSpeedMPH,WindSpeedGustMPH,Humidity,HourlyPrecipIn,Conditions,Clouds,dailyrainin,SolarRadiationWatts/m^2,SoftwareType,DateUTC
2013-05-08 00:00:00,60.1,58.0,30.08,South,180,0.0,0.0,93,0.00,CLR,SCT,0.00,0.0,WeatherDisplay:10.37,2013-05-08 04:00:00,
2013-05-08 00:05:00,59.9,57.9,30.08,South,180,0.0,0.0,93,0.00,CLR,SCT,0.00,0.0,WeatherDisplay:10.37,2013-05-08 04:05:00,
2013-05-08 00:10:00,59.7,58.0,30.08,South,180,0.0,0.0,94,0.00,CLR,SCT,0.00,0.0,WeatherDisplay:10.37,2013-05-08 04:10:00,
2013-05-08 00:15:00,59.5,58.1,30.08,South,180,0.0,1.0,95,0.00,CLR,SCT,0.00,0.0,WeatherDisplay:10.37,2013-05-08 04:15:00,
2013-05-08 00:25:00,59.5,58.4,30.08,South,180,0.0,1.0,96,0.00,CLR,SCT,0.00,0.0,WeatherDisplay:10.37,2013-05-08 04:25:00,
2013-05-08 00:30:00,59.4,58.5,30.08,South,180,0.0,0.0,97,0.00,CLR,SCT,0.00,0.0,WeatherDisplay:10.37,2013-05-08 04:30:00,
2013-05-08 00:35:00,59.4,58.5,30.08,South,180,0.0,0.0,97,0.00,CLR,SCT,0.00,0.0,WeatherDisplay:10.37,2013-05-08 04:35:00,
2013-05-08 00:40:00,59.4,58.5,30.08,South,180,0.0,0.0,97,0.00,CLR,SCT,0.00,0.0,WeatherDisplay:10.37,2013-05-08 04:40:00,
2013-05-08 00:45:00,59.2,58.3,30.08,South,180,0.0,0.0,97,0.00,CLR,SCT,0.00,0.0,WeatherDisplay:10.37,2013-05-08 04:45:00,
2013-05-08 00:55:00,59.0,58.4,30.08,South,180,0.0,0.0,98,0.00,CLR,SCT,0.00,0.0,WeatherDisplay:10.37,2013-05-08 04:55:00,
2013-05-08 01:00:00,58.8,58.3,30.08,South,180,0.0,0.0,98,0.00,CLR,SCT,0.00,0.0,WeatherDisplay:10.37,2013-05-08 05:00:00,
2013-05-08 01:10:00,58.5,57.9,30.08,South,180,0.0,0.0,98,0.00,CLR,SCT,0.00,0.0,WeatherDisplay:10.37,2013-05-08 05:10:00,
2013-05-08 01:15:00,58.1,57.8,30.07,South,180,0.0,0.0,99,0.00,CLR,SCT,0.00,0.0,WeatherDisplay:10.37,2013-05-08 05:15:00,
2013-05-08 01:25:00,57.7,57.5,30.07,South,180,0.0,0.0,99,0.00,CLR,SCT,0.00,0.0,WeatherDisplay:10.37,2013-05-08 05:25:00,
2013-05-08 01:30:00,57.7,57.5,30.07,South,180,0.0,0.0,99,0.00,CLR,SCT,0.00,0.0,WeatherDisplay:10.37,2013-05-08 05:30:00,
2013-05-08 01:40:00,57.3,57.0,30.07,South,180,0.0,0.0,99,0.00,CLR,SCT,0.00,0.0,WeatherDisplay:10.37,2013-05-08 05:40:00,
2013-05-08 01:45:00,57.0,56.7,30.07,South,180,0.0,0.0,99,0.00,CLR,SCT,0.00,0.0,WeatherDisplay:10.37,2013-05-08 05:45:00,
2013-05-08 01:55:00,57.0,56.7,30.06,South,180,0.0,0.0,99,0.00,CLR,SCT,0.00,0.0,WeatherDisplay:10.37,2013-05-08 05:55:00,
2013-05-08 02:00:00,56.8,56.6,30.06,South,180,0.0,0.0,99,0.00,CLR,SCT,0.00,0.0,WeatherDisplay:10.37,2013-05-08 06:00:00,
2013-05-08 02:10:00,56.8,56.6,30.06,South,180,0.0,0.0,99,0.00,CLR,SCT,0.00,0.0,WeatherDisplay:10.37,2013-05-08 06:10:00,
2013-05-08 02:15:00,56.7,56.4,30.06,South,180,0.0,0.0,99,0.00,CLR,SCT,0.00,0.0,WeatherDisplay:10.37,2013-05-08 06:15:00,
2013-05-08 02:25:00,56.3,56.0,30.06,South,180,0.0,0.0,99,0.00,CLR,SCT,0.00,0.0,WeatherDisplay:10.37,2013-05-08 06:25:00,
2013-05-08 02:30:00,56.3,56.0,30.06,South,180,0.0,0.0,99,0.00,CLR,SCT,0.00,0.0,WeatherDisplay:10.37,2013-05-08 06:30:00,
2013-05-08 02:40:00,56.2,56.0,30.06,South,180,0.0,0.0,99,0.00,CLR,SCT,0.00,0.0,WeatherDisplay:10.37,2013-05-08 06:40:00,
2013-05-08 02:45:00,55.9,55.7,30.06,South,180,0.0,0.0,99,0.00,CLR,SCT,0.00,0.0,WeatherDisplay:10.37,2013-05-08 06:45:00,
2013-05-08 02:55:00,55.6,55.3,30.06,South,180,0.0,0.0,99,0.00,CLR,SCT,0.00,0.0,WeatherDisplay:10.37,2013-05-08 06:55:00,
2013-05-08 03:00:00,55.8,55.5,30.06,South,180,0.0,0.0,99,0.00,CLR,SCT,0.00,0.0,WeatherDisplay:10.37,2013-05-08 07:00:00,
2013-05-08 03:10:00,55.6,55.3,30.06,South,180,0.0,0.0,99,0.00,CLR,SCT,0.00,0.0,WeatherDisplay:10.37,2013-05-08 07:10:00,
2013-05-08 03:15:00,55.4,55.1,30.06,South,180,0.0,0.0,99,0.00,CLR,SCT,0.00,0.0,WeatherDisplay:10.37,2013-05-08 07:15:00,
2013-05-08 03:25:00,55.2,54.9,30.06,South,180,0.0,0.0,99,0.00,CLR,SCT,0.00,0.0,WeatherDisplay:10.37,2013-05-08 07:25:00,
2013-05-08 03:30:00,55.0,54.8,30.06,South,180,0.0,0.0,99,0.00,CLR,SCT,0.00,0.0,WeatherDisplay:10.37,2013-05-08 07:30:00,
2013-05-08 03:40:00,55.0,54.8,30.06,South,180,0.0,0.0,99,0.00,CLR,SCT,0.00,0.0,WeatherDisplay:10.37,2013-05-08 07:40:00,
2013-05-08 03:45:00,55.0,54.8,30.06,South,180,0.0,0.0,99,0.00,CLR,SCT,0.00,0.0,WeatherDisplay:10.37,2013-05-08 07:45:00,
2013-05-08 03:55:00,54.7,54.4,30.06,South,180,0.0,0.0,99,0.00,CLR,SCT,0.00,0.0,WeatherDisplay:10.37,2013-05-08 07:55:00,
2013-05-08 04:00:00,54.5,54.2,30.06,South,180,0.0,0.0,99,0.00,CLR,SCT,0.00,0.0,WeatherDisplay:10.37,2013-05-08 08:00:00,
2013-05-08 04:10:00,54.4,54.1,30.07,South,180,0.0,0.0,99,0.00,CLR,SCT,0.00,0.0,WeatherDisplay:10.37,2013-05-08 08:10:00,
2013-05-08 04:15:00,51.8,51.5,30.06,South,180,1.0,7.0,99,0.00,CLR,SCT,0.00,0.0,WeatherDisplay:10.37,2013-05-08 08:15:00,
2013-05-08 04:25:00,54.1,53.9,30.07,South,180,0.0,0.0,99,0.00,RA,SCT,0.02,0.0,WeatherDisplay:10.37,2013-05-08 08:25:00,
2013-05-08 04:30:00,54.1,53.9,30.06,South,180,0.0,0.0,99,0.00,CLR,SCT,0.02,0.0,WeatherDisplay:10.37,2013-05-08 08:30:00,
2013-05-08 04:40:00,54.1,53.9,30.06,South,180,0.0,0.0,99,0.00,CLR,SCT,0.02,0.0,WeatherDisplay:10.37,2013-05-08 08:40:00,
2013-05-08 04:45:00,54.0,53.7,30.07,South,180,0.0,0.0,99,0.00,CLR,SCT,0.02,0.0,WeatherDisplay:10.37,2013-05-08 08:45:00,
2013-05-08 04:55:00,54.0,53.7,30.06,South,180,0.0,0.0,99,0.00,CLR,SCT,0.02,0.0,WeatherDisplay:10.37,2013-05-08 08:55:00,
2013-05-08 05:00:00,53.9,53.6,30.07,South,180,0.0,0.0,99,0.00,CLR,SCT,0.02,0.0,WeatherDisplay:10.37,2013-05-08 09:00:00,
2013-05-08 05:10:00,53.6,53.3,30.07,South,180,0.0,0.0,99,0.00,CLR,SCT,0.02,0.0,WeatherDisplay:10.37,2013-05-08 09:10:00,
2013-05-08 05:15:00,53.6,53.3,30.06,South,180,0.0,0.0,99,0.00,CLR,SCT,0.02,0.0,WeatherDisplay:10.37,2013-05-08 09:15:00,
2013-05-08 05:25:00,53.4,53.1,30.07,South,180,0.0,0.0,99,0.00,CLR,SCT,0.02,0.0,WeatherDisplay:10.37,2013-05-08 09:25:00,
2013-05-08 05:30:00,53.4,53.1,30.07,South,180,0.0,0.0,99,0.00,CLR,SCT,0.02,0.0,WeatherDisplay:10.37,2013-05-08 09:30:00,
2013-05-08 05:40:00,53.3,53.0,30.07,South,180,0.0,0.0,99,0.00,CLR,SCT,0.02,0.0,WeatherDisplay:10.37,2013-05-08 09:40:00,
2013-05-08 05:45:00,53.6,53.3,30.07,South,180,0.0,0.0,99,0.00,CLR,SCT,0.02,0.0,WeatherDisplay:10.37,2013-05-08 09:45:00,
2013-05-08 05:55:00,54.0,53.7,30.08,South,180,0.0,0.0,99,0.00,CLR,SCT,0.02,0.0,WeatherDisplay:10.37,2013-05-08 09:55:00,
2013-05-08 06:00:00,54.2,54.0,30.08,South,180,0.0,0.0,99,0.00,CLR,SCT,0.02,0.0,WeatherDisplay:10.37,2013-05-08 10:00:00,
2013-05-08 06:10:00,54.3,54.0,30.08,South,180,0.0,0.0,99,0.00,CLR,SCT,0.02,0.0,WeatherDisplay:10.37,2013-05-08 10:10:00,
2013-05-08 06:15:00,54.5,54.2,30.08,South,180,0.0,0.0,99,0.00,CLR,SCT,0.02,0.0,WeatherDisplay:10.37,2013-05-08 10:15:00,
2013-05-08 06:20:00,54.9,54.6,30.08,SSW,206,0.0,0.0,99,0.00,CLR,SCT,0.02,0.0,WeatherDisplay:10.37,2013-05-08 10:20:00,
2013-05-08 06:30:00,55.4,55.1,30.09,NW,315,0.0,0.0,99,0.00,CLR,SCT,0.02,0.0,WeatherDisplay:10.37,2013-05-08 10:30:00,
2013-05-08 06:40:00,55.8,55.5,30.09,NW,315,0.0,0.0,99,0.00,CLR,SCT,0.02,0.0,WeatherDisplay:10.37,2013-05-08 10:40:00,
2013-05-08 06:45:00,55.9,55.7,30.09,NW,315,0.0,0.0,99,0.00,CLR,SCT,0.02,0.0,WeatherDisplay:10.37,2013-05-08 10:45:00,
2013-05-08 06:55:00,56.7,56.4,30.09,NW,322,0.0,2.0,99,0.00,CLR,SCT,0.02,0.0,WeatherDisplay:10.37,2013-05-08 10:55:00,
2013-05-08 07:00:00,57.2,56.9,30.10,NNE,26,0.0,1.0,99,0.00,CLR,SCT,0.02,0.0,WeatherDisplay:10.37,2013-05-08 11:00:00,
2013-05-08 07:10:00,58.1,57.8,30.10,NW,323,0.0,2.0,99,0.00,CLR,SCT,0.02,0.0,WeatherDisplay:10.37,2013-05-08 11:10:00,
2013-05-08 07:15:00,58.3,58.0,30.10,North,353,0.0,2.0,99,0.00,CLR,SCT,0.02,0.0,WeatherDisplay:10.37,2013-05-08 11:15:00,
2013-05-08 07:25:00,59.1,58.8,30.11,NNE,23,0.0,2.0,99,0.00,CLR,SCT,0.02,0.0,WeatherDisplay:10.37,2013-05-08 11:25:00,
2013-05-08 07:30:00,59.5,59.3,30.11,NE,42,1.0,2.0,99,0.00,CLR,SCT,0.02,0.0,WeatherDisplay:10.37,2013-05-08 11:30:00,
2013-05-08 07:40:00,60.3,60.0,30.11,SSW,198,0.0,1.0,99,0.00,CLR,SCT,0.02,0.0,WeatherDisplay:10.37,2013-05-08 11:40:00,
2013-05-08 07:45:00,60.9,60.6,30.11,South,170,0.0,0.0,99,0.00,CLR,SCT,0.02,0.0,WeatherDisplay:10.37,2013-05-08 11:45:00,
2013-05-08 07:55:00,61.9,61.6,30.11,ENE,60,0.0,2.0,99,0.00,CLR,SCT,0.02,0.0,WeatherDisplay:10.37,2013-05-08 11:55:00,
2013-05-08 08:00:00,62.2,62.0,30.11,East,84,0.0,2.0,99,0.00,CLR,SCT,0.02,0.0,WeatherDisplay:10.37,2013-05-08 12:00:00,
2013-05-08 08:10:00,63.6,63.3,30.12,NW,325,0.0,2.0,99,0.00,CLR,SCT,0.02,0.0,WeatherDisplay:10.37,2013-05-08 12:10:00,
2013-05-08 08:15:00,64.2,63.9,30.12,NNE,20,1.0,3.0,99,0.00,CLR,SCT,0.02,0.0,WeatherDisplay:10.37,2013-05-08 12:15:00,
2013-05-08 08:25:00,64.4,63.3,30.11,NNE,25,0.0,3.0,96,0.00,CLR,SCT,0.02,0.0,WeatherDisplay:10.37,2013-05-08 12:25:00,
2013-05-08 08:30:00,64.8,63.3,30.11,ENE,78,0.0,3.0,95,0.00,CLR,SCT,0.02,0.0,WeatherDisplay:10.37,2013-05-08 12:30:00,
2013-05-08 08:40:00,65.6,63.8,30.11,East,101,0.0,2.0,94,0.00,CLR,SCT,0.02,0.0,WeatherDisplay:10.37,2013-05-08 12:40:00,
2013-05-08 08:45:00,66.2,64.1,30.11,East,85,0.0,3.0,93,0.00,CLR,SCT,0.02,0.0,WeatherDisplay:10.37,2013-05-08 12:45:00,
2013-05-08 08:55:00,66.6,63.5,30.10,East,100,0.0,2.0,90,0.00,CLR,SCT,0.02,0.0,WeatherDisplay:10.37,2013-05-08 12:55:00,
2013-05-08 09:00:00,66.6,63.5,30.10,ESE,116,0.0,2.0,90,0.00,CLR,SCT,0.02,0.0,WeatherDisplay:10.37,2013-05-08 13:00:00,
2013-05-08 09:10:00,66.6,63.9,30.10,ENE,71,0.0,3.0,91,0.00,SCT,SCT,0.02,0.0,WeatherDisplay:10.37,2013-05-08 13:10:00,
2013-05-08 09:15:00,66.5,64.5,30.10,East,88,0.0,2.0,93,0.00,SCT,SCT,0.02,0.0,WeatherDisplay:10.37,2013-05-08 13:15:00,
2013-05-08 09:25:00,67.5,65.8,30.10,East,92,0.0,2.0,94,0.00,SCT,SCT,0.02,0.0,WeatherDisplay:10.37,2013-05-08 13:25:00,
2013-05-08 09:30:00,67.9,65.5,30.10,ESE,111,1.0,3.0,92,0.00,SCT,SCT,0.02,0.0,WeatherDisplay:10.37,2013-05-08 13:30:00,
2013-05-08 09:40:00,68.9,66.2,30.10,East,96,0.0,2.0,91,0.00,SCT,SCT,0.02,0.0,WeatherDisplay:10.37,2013-05-08 13:40:00,
2013-05-08 09:45:00,69.4,65.4,30.10,East,90,1.0,3.0,87,0.00,SCT,SCT,0.02,0.0,WeatherDisplay:10.37,2013-05-08 13:45:00,
2013-05-08 09:55:00,69.6,65.2,30.10,SSE,150,1.0,3.0,86,0.00,SCT,SCT,0.02,0.0,WeatherDisplay:10.37,2013-05-08 13:55:00,
2013-05-08 10:00:00,69.8,65.1,30.10,SE,128,2.0,6.0,85,0.00,SCT,SCT,0.02,0.0,WeatherDisplay:10.37,2013-05-08 14:00:00,
2013-05-08 10:10:00,70.3,65.3,30.10,SE,124,1.0,6.0,84,0.00,-RA,SCT,0.02,0.0,WeatherDisplay:10.37,2013-05-08 14:10:00,
2013-05-08 10:15:00,70.7,65.3,30.10,ESE,115,1.0,6.0,83,0.00,-RA,SCT,0.02,0.0,WeatherDisplay:10.37,2013-05-08 14:15:00,
2013-05-08 10:25:00,71.6,65.1,30.10,SE,138,1.0,6.0,80,0.00,-RA,SCT,0.02,0.0,WeatherDisplay:10.37,2013-05-08 14:25:00,
2013-05-08 10:30:00,72.0,65.1,30.10,SSE,155,1.0,6.0,79,0.00,-RA,SCT,0.02,0.0,WeatherDisplay:10.37,2013-05-08 14:30:00,
2013-05-08 10:40:00,72.7,65.1,30.10,SSE,158,3.0,7.0,77,0.00,-RA,SCT,0.02,0.0,WeatherDisplay:10.37,2013-05-08 14:40:00,
2013-05-08 10:45:00,72.7,65.1,30.10,SE,145,1.0,7.0,77,0.00,-RA,SCT,0.02,0.0,WeatherDisplay:10.37,2013-05-08 14:45:00,
2013-05-08 10:55:00,73.0,65.0,30.10,ESE,105,1.0,5.0,76,0.00,-RA,SCT,0.02,0.0,WeatherDisplay:10.37,2013-05-08 14:55:00,
2013-05-08 11:00:00,73.3,65.6,30.10,ESE,115,2.0,8.0,77,0.00,-RA,SCT,0.02,0.0,WeatherDisplay:10.37,2013-05-08 15:00:00,
2013-05-08 11:10:00,74.1,64.9,30.10,SE,126,2.0,10.0,73,0.00,SCT,SCT,0.02,0.0,WeatherDisplay:10.37,2013-05-08 15:10:00,
2013-05-08 11:15:00,74.1,65.3,30.09,SE,143,3.0,7.0,74,0.00,SCT,SCT,0.02,0.0,WeatherDisplay:10.37,2013-05-08 15:15:00,
2013-05-08 11:25:00,74.5,64.9,30.09,ESE,105,2.0,6.0,72,0.00,BKN,SCT,0.02,0.0,WeatherDisplay:10.37,2013-05-08 15:25:00,
2013-05-08 11:30:00,74.7,64.6,30.09,SE,133,3.0,7.0,71,0.00,BKN,SCT,0.02,0.0,WeatherDisplay:10.37,2013-05-08 15:30:00,
2013-05-08 11:40:00,74.1,63.7,30.09,East,100,5.0,8.0,70,0.00,BKN,SCT,0.02,0.0,WeatherDisplay:10.37,2013-05-08 15:40:00,
2013-05-08 11:45:00,74.7,64.2,30.08,ESE,111,2.0,9.0,70,0.00,BKN,SCT,0.02,0.0,WeatherDisplay:10.37,2013-05-08 15:45:00,
2013-05-08 11:55:00,75.6,64.3,30.08,SE,146,2.0,6.0,68,0.00,BKN,SCT,0.02,0.0,WeatherDisplay:10.37,2013-05-08 15:55:00,
2013-05-08 12:00:00,75.5,63.7,30.08,SE,133,2.0,6.0,67,0.00,BKN,SCT,0.02,0.0,WeatherDisplay:10.37,2013-05-08 16:00:00,
2013-05-08 12:10:00,77.5,63.9,30.07,ESE,112,1.0,7.0,63,0.00,BKN,SCT,0.02,0.0,WeatherDisplay:10.37,2013-05-08 16:10:00,
2013-05-08 12:15:00,76.9,62.9,30.07,ESE,118,3.0,7.0,62,0.00,BKN,SCT,0.02,0.0,WeatherDisplay:10.37,2013-05-08 16:15:00,
2013-05-08 12:25:00,76.1,63.0,30.06,SE,141,2.0,7.0,64,0.00,BKN,SCT,0.02,0.0,WeatherDisplay:10.37,2013-05-08 16:25:00,
2013-05-08 12:30:00,75.9,62.4,30.06,SE,145,3.0,8.0,63,0.00,BKN,SCT,0.02,0.0,WeatherDisplay:10.37,2013-05-08 16:30:00,
2013-05-08 12:40:00,74.9,62.7,30.07,ESE,122,1.0,8.0,66,0.00,BKN,SCT,0.02,0.0,WeatherDisplay:10.37,2013-05-08 16:40:00,
2013-05-08 12:45:00,74.6,62.9,30.07,SE,142,3.0,7.0,67,0.00,BKN,SCT,0.02,0.0,WeatherDisplay:10.37,2013-05-08 16:45:00,
2013-05-08 12:55:00,72.4,62.9,30.07,East,99,2.0,7.0,72,0.00,BKN,SCT,0.02,0.0,WeatherDisplay:10.37,2013-05-08 16:55:00,
2013-05-08 13:00:00,72.0,62.4,30.07,ESE,106,2.0,6.0,72,0.00,BKN,SCT,0.02,0.0,WeatherDisplay:10.37,2013-05-08 17:00:00,
2013-05-08 13:10:00,73.2,63.7,30.07,ESE,121,2.0,6.0,72,0.00,OVC,SCT,0.02,0.0,WeatherDisplay:10.37,2013-05-08 17:10:00,
2013-05-08 13:15:00,73.4,64.2,30.07,ESE,119,2.0,6.0,73,0.00,OVC,SCT,0.02,0.0,WeatherDisplay:10.37,2013-05-08 17:15:00,
2013-05-08 13:25:00,73.1,64.3,30.06,SSE,149,3.0,9.0,74,0.00,OVC,SCT,0.02,0.0,WeatherDisplay:10.37,2013-05-08 17:25:00,
2013-05-08 13:30:00,72.7,63.9,30.07,ESE,110,5.0,9.0,74,0.00,OVC,SCT,0.02,0.0,WeatherDisplay:10.37,2013-05-08 17:30:00,
2013-05-08 13:40:00,71.9,62.4,30.07,ESE,115,2.0,7.0,72,0.00,OVC,SCT,0.02,0.0,WeatherDisplay:10.37,2013-05-08 17:40:00,
2013-05-08 13:45:00,71.8,63.4,30.07,ESE,119,2.0,6.0,75,0.00,OVC,SCT,0.02,0.0,WeatherDisplay:10.37,2013-05-08 17:45:00,
2013-05-08 13:55:00,72.1,64.5,30.06,SE,132,1.0,6.0,77,0.00,OVC,SCT,0.02,0.0,WeatherDisplay:10.37,2013-05-08 17:55:00,
2013-05-08 14:00:00,72.5,64.1,30.06,ESE,114,5.0,8.0,75,0.00,OVC,SCT,0.02,0.0,WeatherDisplay:10.37,2013-05-08 18:00:00,
2013-05-08 14:10:00,74.8,65.5,30.05,ESE,123,1.0,7.0,73,0.00,OVC,SCT,0.02,0.0,WeatherDisplay:10.37,2013-05-08 18:10:00,
2013-05-08 14:15:00,76.3,65.4,30.05,ESE,106,2.0,9.0,69,0.00,OVC,SCT,0.02,0.0,WeatherDisplay:10.37,2013-05-08 18:15:00,
2013-05-08 14:25:00,76.0,64.6,30.05,SE,136,2.0,6.0,68,0.00,OVC,SCT,0.02,0.0,WeatherDisplay:10.37,2013-05-08 18:25:00,
2013-05-08 14:30:00,74.5,64.1,30.04,SSE,156,5.0,9.0,70,0.00,OVC,SCT,0.02,0.0,WeatherDisplay:10.37,2013-05-08 18:30:00,
2013-05-08 14:40:00,75.6,63.8,30.04,SE,139,3.0,10.0,67,0.00,OVC,SCT,0.02,0.0,WeatherDisplay:10.37,2013-05-08 18:40:00,
2013-05-08 14:45:00,76.6,65.7,30.03,SE,138,1.0,10.0,69,0.00,OVC,SCT,0.02,0.0,WeatherDisplay:10.37,2013-05-08 18:45:00,
2013-05-08 14:55:00,77.3,63.7,30.03,ESE,116,5.0,8.0,63,0.00,OVC,SCT,0.02,0.0,WeatherDisplay:10.37,2013-05-08 18:55:00,
2013-05-08 15:00:00,75.4,62.8,30.03,ESE,110,2.0,6.0,65,0.00,OVC,SCT,0.02,0.0,WeatherDisplay:10.37,2013-05-08 19:00:00,
2013-05-08 15:10:00,73.2,62.4,30.03,ESE,119,2.0,8.0,69,0.00,FEW,SCT,0.02,0.0,WeatherDisplay:10.37,2013-05-08 19:10:00,
2013-05-08 15:15:00,72.9,62.5,30.02,ESE,118,1.0,6.0,70,0.00,FEW,SCT,0.02,0.0,WeatherDisplay:10.37,2013-05-08 19:15:00,
2013-05-08 15:25:00,72.9,62.1,30.02,East,90,1.0,8.0,69,0.00,FEW,SCT,0.02,0.0,WeatherDisplay:10.37,2013-05-08 19:25:00,
2013-05-08 15:30:00,72.1,62.6,30.03,East,92,3.0,8.0,72,0.00,FEW,SCT,0.02,0.0,WeatherDisplay:10.37,2013-05-08 19:30:00,
2013-05-08 15:40:00,70.9,62.9,30.03,ESE,123,2.0,8.0,76,0.00,FEW,SCT,0.02,0.0,WeatherDisplay:10.37,2013-05-08 19:40:00,
2013-05-08 15:45:00,70.3,63.5,30.02,SE,129,1.0,6.0,79,0.00,FEW,SCT,0.02,0.0,WeatherDisplay:10.37,2013-05-08 19:45:00,
2013-05-08 15:55:00,70.0,63.9,30.03,SE,133,2.0,8.0,81,0.00,FEW,SCT,0.02,0.0,WeatherDisplay:10.37,2013-05-08 19:55:00,
2013-05-08 16:00:00,69.8,64.1,30.03,SE,126,3.0,8.0,82,0.00,FEW,SCT,0.02,0.0,WeatherDisplay:10.37,2013-05-08 20:00:00,
2013-05-08 16:10:00,69.8,64.1,30.03,SE,132,3.0,8.0,82,0.00,OVC,SCT,0.02,0.0,WeatherDisplay:10.37,2013-05-08 20:10:00,
2013-05-08 16:15:00,69.6,63.9,30.03,SE,131,3.0,8.0,82,0.00,OVC,SCT,0.02,0.0,WeatherDisplay:10.37,2013-05-08 20:15:00,
2013-05-08 16:25:00,69.3,64.2,30.03,SE,124,3.0,6.0,84,0.00,OVC,SCT,0.02,0.0,WeatherDisplay:10.37,2013-05-08 20:25:00,
2013-05-08 16:30:00,69.0,63.9,30.03,SE,141,1.0,8.0,84,0.00,OVC,SCT,0.02,0.0,WeatherDisplay:10.37,2013-05-08 20:30:00,
2013-05-08 16:40:00,68.9,63.9,30.02,East,100,1.0,6.0,84,0.00,OVC,SCT,0.02,0.0,WeatherDisplay:10.37,2013-05-08 20:40:00,
2013-05-08 16:45:00,68.9,63.9,30.02,ESE,113,1.0,6.0,84,0.00,OVC,SCT,0.02,0.0,WeatherDisplay:10.37,2013-05-08 20:45:00,
2013-05-08 16:55:00,69.0,64.6,30.02,ESE,119,2.0,6.0,86,0.00,OVC,SCT,0.02,0.0,WeatherDisplay:10.37,2013-05-08 20:55:00,
2013-05-08 17:01:00,69.1,64.7,30.02,ESE,110,1.0,6.0,86,0.00,OVC,SCT,0.02,0.0,WeatherDisplay:10.37,2013-05-08 21:01:00,
2013-05-08 17:10:00,69.3,64.5,30.02,East,96,1.0,8.0,85,0.00,-RA,SCT,0.02,0.0,WeatherDisplay:10.37,2013-05-08 21:10:00,
2013-05-08 17:15:00,69.1,64.4,30.02,East,96,2.0,4.0,85,0.00,-RA,SCT,0.02,0.0,WeatherDisplay:10.37,2013-05-08 21:15:00,
2013-05-08 17:25:00,67.2,65.1,30.01,SE,124,0.0,5.0,93,0.01,-RA,SCT,0.04,0.0,WeatherDisplay:10.37,2013-05-08 21:25:00,
2013-05-08 17:30:00,66.9,65.8,30.01,ESE,112,1.0,4.0,96,0.00,-RA,SCT,0.04,0.0,WeatherDisplay:10.37,2013-05-08 21:30:00,
2013-05-08 17:40:00,66.6,66.0,30.01,ESE,106,2.0,6.0,98,0.00,-RA,SCT,0.04,0.0,WeatherDisplay:10.37,2013-05-08 21:40:00,
2013-05-08 17:45:00,66.6,66.0,30.01,ESE,106,1.0,6.0,98,0.00,-RA,SCT,0.04,0.0,WeatherDisplay:10.37,2013-05-08 21:45:00,
2013-05-08 17:55:00,66.6,66.0,30.01,ESE,104,1.0,3.0,98,0.00,-RA,SCT,0.04,0.0,WeatherDisplay:10.37,2013-05-08 21:55:00,
2013-05-08 18:01:00,66.6,65.7,30.00,East,98,2.0,6.0,97,0.00,-RA,SCT,0.04,0.0,WeatherDisplay:10.37,2013-05-08 22:01:00,
2013-05-08 18:10:00,66.4,65.5,30.00,ESE,102,2.0,6.0,97,0.00,SCT,SCT,0.04,0.0,WeatherDisplay:10.37,2013-05-08 22:10:00,
2013-05-08 18:15:00,66.4,65.2,30.00,East,97,1.0,6.0,96,0.00,SCT,SCT,0.04,0.0,WeatherDisplay:10.37,2013-05-08 22:15:00,
2013-05-08 18:25:00,66.1,64.6,30.00,ESE,113,1.0,5.0,95,0.00,SCT,SCT,0.04,0.0,WeatherDisplay:10.37,2013-05-08 22:25:00,
2013-05-08 18:30:00,66.0,64.8,30.00,East,94,0.0,4.0,96,0.00,SCT,SCT,0.04,0.0,WeatherDisplay:10.37,2013-05-08 22:30:00,
2013-05-08 18:40:00,65.8,64.4,30.00,East,93,1.0,4.0,95,0.00,SCT,SCT,0.04,0.0,WeatherDisplay:10.37,2013-05-08 22:40:00,
2013-05-08 18:45:00,65.7,64.2,30.00,East,95,2.0,5.0,95,0.00,SCT,SCT,0.04,0.0,WeatherDisplay:10.37,2013-05-08 22:45:00,
2013-05-08 18:55:00,65.7,64.2,30.00,East,95,0.0,3.0,95,0.00,SCT,SCT,0.04,0.0,WeatherDisplay:10.37,2013-05-08 22:55:00,
2013-05-08 19:01:00,65.4,64.0,30.00,ESE,109,1.0,6.0,95,0.00,SCT,SCT,0.04,0.0,WeatherDisplay:10.37,2013-05-08 23:01:00,
2013-05-08 19:10:00,65.3,63.8,30.00,East,90,1.0,2.0,95,0.00,-RA,SCT,0.04,0.0,WeatherDisplay:10.37,2013-05-08 23:10:00,
2013-05-08 19:15:00,64.9,63.5,30.00,East,90,0.0,2.0,95,0.00,-RA,SCT,0.04,0.0,WeatherDisplay:10.37,2013-05-08 23:15:00,
2013-05-08 19:25:00,64.8,63.6,30.00,East,96,1.0,3.0,96,0.00,-RA,SCT,0.04,0.0,WeatherDisplay:10.37,2013-05-08 23:25:00,
2013-05-08 19:30:00,64.6,63.4,30.00,ESE,112,1.0,4.0,96,0.00,-RA,SCT,0.04,0.0,WeatherDisplay:10.37,2013-05-08 23:30:00,
2013-05-08 19:40:00,64.2,63.4,30.00,East,94,1.0,3.0,97,0.00,-RA,SCT,0.04,0.0,WeatherDisplay:10.37,2013-05-08 23:40:00,
2013-05-08 19:45:00,64.2,63.3,29.99,ESE,104,1.0,3.0,97,0.00,-RA,SCT,0.04,0.0,WeatherDisplay:10.37,2013-05-08 23:45:00,
2013-05-08 19:55:00,63.9,63.0,29.99,East,94,0.0,2.0,97,0.00,-RA,SCT,0.04,0.0,WeatherDisplay:10.37,2013-05-08 23:55:00,
2013-05-08 20:01:00,63.8,63.0,29.99,East,90,0.0,2.0,97,0.00,-RA,SCT,0.04,0.0,WeatherDisplay:10.37,2013-05-09 00:01:00,
2013-05-08 20:10:00,63.5,62.9,29.99,ESE,122,1.0,2.0,98,0.00,BKN,SCT,0.04,0.0,WeatherDisplay:10.37,2013-05-09 00:10:00,
2013-05-08 20:15:00,63.3,62.7,29.99,ESE,108,1.0,3.0,98,0.00,BKN,SCT,0.04,0.0,WeatherDisplay:10.37,2013-05-09 00:15:00,
2013-05-08 20:25:00,63.0,62.7,29.99,East,95,1.0,2.0,99,0.00,BKN,SCT,0.04,0.0,WeatherDisplay:10.37,2013-05-09 00:25:00,
2013-05-08 20:30:00,62.8,62.5,29.99,East,90,0.0,2.0,99,0.00,BKN,SCT,0.04,0.0,WeatherDisplay:10.37,2013-05-09 00:30:00,
2013-05-08 20:40:00,62.6,62.3,29.99,East,90,0.0,2.0,99,0.00,BKN,SCT,0.04,0.0,WeatherDisplay:10.37,2013-05-09 00:40:00,
2013-05-08 20:45:00,62.5,62.2,29.99,East,90,0.0,2.0,99,0.00,BKN,SCT,0.04,0.0,WeatherDisplay:10.37,2013-05-09 00:45:00,
2013-05-08 20:55:00,62.4,62.1,29.99,ESE,121,1.0,3.0,99,0.00,BKN,SCT,0.04,0.0,WeatherDisplay:10.37,2013-05-09 00:55:00,
2013-05-08 21:01:00,62.3,62.0,29.99,ESE,113,1.0,3.0,99,0.00,BKN,SCT,0.04,0.0,WeatherDisplay:10.37,2013-05-09 01:01:00,
2013-05-08 21:10:00,62.2,62.0,29.99,SE,130,1.0,4.0,99,0.00,FEW,SCT,0.04,0.0,WeatherDisplay:10.37,2013-05-09 01:10:00,
2013-05-08 21:15:00,62.1,61.8,29.99,ESE,109,0.0,3.0,99,0.00,FEW,SCT,0.04,0.0,WeatherDisplay:10.37,2013-05-09 01:15:00,
2013-05-08 21:25:00,62.1,61.8,30.00,East,95,1.0,3.0,99,0.00,FEW,SCT,0.04,0.0,WeatherDisplay:10.37,2013-05-09 01:25:00,
2013-05-08 21:30:00,62.1,61.8,29.99,NE,46,0.0,3.0,99,0.00,FEW,SCT,0.04,0.0,WeatherDisplay:10.37,2013-05-09 01:30:00,
2013-05-08 21:40:00,62.1,61.8,29.99,ESE,110,1.0,2.0,99,0.00,BKN,SCT,0.04,0.0,WeatherDisplay:10.37,2013-05-09 01:40:00,
2013-05-08 21:45:00,62.1,61.8,29.99,SE,138,0.0,2.0,99,0.00,BKN,SCT,0.04,0.0,WeatherDisplay:10.37,2013-05-09 01:45:00,
2013-05-08 21:55:00,61.9,61.6,29.99,SE,133,0.0,2.0,99,0.00,BKN,SCT,0.04,0.0,WeatherDisplay:10.37,2013-05-09 01:55:00,
2013-05-08 22:01:00,61.7,61.4,29.98,ESE,105,0.0,2.0,99,0.00,BKN,SCT,0.04,0.0,WeatherDisplay:10.37,2013-05-09 02:01:00,
2013-05-08 22:10:00,61.7,61.4,29.99,SE,128,1.0,4.0,99,0.00,OVC,SCT,0.04,0.0,WeatherDisplay:10.37,2013-05-09 02:10:00,
2013-05-08 22:15:00,61.7,61.4,29.99,SE,136,0.0,3.0,99,0.00,OVC,SCT,0.04,0.0,WeatherDisplay:10.37,2013-05-09 02:15:00,
2013-05-08 22:25:00,61.7,61.4,29.99,ESE,118,0.0,3.0,99,0.00,OVC,SCT,0.04,0.0,WeatherDisplay:10.37,2013-05-09 02:25:00,
2013-05-08 22:30:00,61.7,61.4,29.99,SE,139,0.0,2.0,99,0.00,OVC,SCT,0.04,0.0,WeatherDisplay:10.37,2013-05-09 02:30:00,
2013-05-08 22:40:00,61.7,61.4,29.98,East,89,0.0,2.0,99,0.00,OVC,SCT,0.04,0.0,WeatherDisplay:10.37,2013-05-09 02:40:00,
2013-05-08 22:45:00,61.7,61.4,29.98,East,92,0.0,2.0,99,0.00,OVC,SCT,0.04,0.0,WeatherDisplay:10.37,2013-05-09 02:45:00,
2013-05-08 22:55:00,61.9,61.6,29.98,East,90,0.0,2.0,99,0.00,OVC,SCT,0.04,0.0,WeatherDisplay:10.37,2013-05-09 02:55:00,
2013-05-08 23:01:00,61.9,61.6,29.98,East,90,0.0,2.0,99,0.00,OVC,SCT,0.04,0.0,WeatherDisplay:10.37,2013-05-09 03:01:00,
2013-05-08 23:10:00,61.9,61.6,29.97,ESE,102,0.0,2.0,99,0.00,OVC,SCT,0.04,0.0,WeatherDisplay:10.37,2013-05-09 03:10:00,
2013-05-08 23:15:00,61.9,61.6,29.97,SE,125,0.0,1.0,99,0.00,OVC,SCT,0.04,0.0,WeatherDisplay:10.37,2013-05-09 03:15:00,
2013-05-08 23:25:00,61.7,61.4,29.97,SSE,150,1.0,2.0,99,0.00,OVC,SCT,0.04,0.0,WeatherDisplay:10.37,2013-05-09 03:25:00,
2013-05-08 23:30:00,61.7,61.4,29.97,SE,125,0.0,2.0,99,0.00,OVC,SCT,0.04,0.0,WeatherDisplay:10.37,2013-05-09 03:30:00,
2013-05-08 23:40:00,61.7,61.4,29.97,NE,49,0.0,2.0,99,0.00,OVC,SCT,0.04,0.0,WeatherDisplay:10.37,2013-05-09 03:40:00,
2013-05-08 23:45:00,61.7,61.4,29.96,NE,45,0.0,2.0,99,0.00,OVC,SCT,0.04,0.0,WeatherDisplay:10.37,2013-05-09 03:45:00,
2013-05-08 23:55:00,61.5,61.2,29.96,East,84,0.0,1.0,99,0.00,OVC,SCT,0.04,0.0,WeatherDisplay:10.37,2013-05-09 03:55:00,